Disney Dream — C6YR6 — position and weather

sailwx.info

Track history (hours):
 
Tides and Currents Weather Stations Pressure Air Temp Water Temp Dewpoint Dewpoint Depression Visibility Wind Speed Wind Dir Waves Ship Positions

Disney Dream

Last reported at 2020-Apr-05 06:59 UTC. Time now 2020-Apr-05 07:24 UTC.
Position N 28°20' W 080°31'.

Length 339 m; draft 8.6 m.

Type: Ship. MMSI: 311042900.

Date/timePositionNaut miles runAvg speedWind from/ knotsBaromVisibWave heightAir tempDewpointWater temp
2020-Apr-05 06:59N 28°20' W 080°31'0 0.0
2020-Apr-05 06:29N 28°20' W 080°31'3 5.7
2020-Apr-05 06:00N 28°18' W 080°30'3 0.6 150 / 101012.510.8 24.0 23.0
2020-Apr-05 01:26N 28°20' W 080°31'0 0.0
2020-Apr-04 23:29N 28°20' W 080°31'0 0.0
2020-Apr-04 21:59N 28°20' W 080°32'0 0.0
2020-Apr-04 21:26N 28°20' W 080°32'0 0.0
2020-Apr-04 19:59N 28°20' W 080°31'0 0.0
2020-Apr-04 19:29N 28°20' W 080°32'0 0.0
2020-Apr-04 16:59N 28°20' W 080°31'0 0.0
2020-Apr-04 15:50N 28°20' W 080°31'0 0.0
2020-Apr-04 14:50N 28°20' W 080°31'0 0.0
2020-Apr-04 14:29N 28°20' W 080°31'0 0.0
2020-Apr-04 13:59N 28°20' W 080°31'0 0.0
2020-Apr-04 13:29N 28°20' W 080°31'0 0.0
2020-Apr-04 07:29N 28°20' W 080°32'0 0.0
2020-Apr-04 03:59N 28°20' W 080°32'0 0.0
2020-Apr-04 02:59N 28°20' W 080°32'0 0.0
2020-Apr-04 02:20N 28°20' W 080°32'0 0.0
2020-Apr-04 00:56N 28°20' W 080°32'0 0.0
2020-Apr-03 21:29N 28°20' W 080°31'6 5.8
2020-Apr-03 20:30N 28°25' W 080°36'2 1.7
2020-Apr-03 19:28N 28°25' W 080°38'0 0.0
2020-Apr-03 16:28N 28°25' W 080°38'0 0.0
2020-Apr-03 15:58N 28°25' W 080°38'0 0.0
2020-Apr-03 15:28N 28°25' W 080°38'0 0.0
2020-Apr-03 12:58N 28°25' W 080°38'0 0.0
2020-Apr-03 10:58N 28°25' W 080°38'0 0.0
2020-Apr-03 09:58N 28°25' W 080°38'15 7.6
2020-Apr-03 07:57N 28°18' W 080°22'14 7.3
2020-Apr-03 06:00N 28°18' W 080°06'1212.2 050 / 61013.910.8 22.0 26.0
2020-Apr-03 05:00N 28°12' W 079°54'34 3.3 360 / 51013.710.8 22.0 26.0
2020-Apr-02 18:40N 28°21' W 080°32'0 0.0
2020-Apr-02 11:46N 28°21' W 080°32'0 0.0
2020-Apr-02 10:55N 28°21' W 080°32'0 0.1
2020-Apr-02 10:22N 28°21' W 080°32'0 0.0
2020-Apr-02 09:19N 28°21' W 080°32'0 0.0
2020-Apr-02 07:40N 28°21' W 080°32'0 0.1
2020-Apr-02 07:28N 28°21' W 080°32'0 0.0
2020-Apr-02 05:28N 28°21' W 080°32'0 0.0
2020-Apr-02 02:16N 28°21' W 080°32'0 0.0
2020-Apr-02 01:49N 28°21' W 080°32'0 0.0
2020-Apr-01 22:52N 28°21' W 080°32'0 0.0
2020-Apr-01 21:16N 28°21' W 080°32'0 0.0
2020-Apr-01 18:28N 28°21' W 080°32'0 0.0
2020-Apr-01 17:55N 28°21' W 080°32'0 0.0
2020-Apr-01 16:55N 28°21' W 080°32'0 0.0
2020-Apr-01 16:28N 28°21' W 080°32'0 0.0
2020-Apr-01 10:10N 28°21' W 080°32'0 0.0
2020-Apr-01 07:58N 28°21' W 080°32'0 0.0
2020-Apr-01 07:28N 28°21' W 080°32'0 0.0
2020-Mar-31 21:55N 28°21' W 080°32'0 0.0
2020-Mar-31 20:43N 28°21' W 080°32'0 0.0
2020-Mar-31 20:16N 28°21' W 080°32'0 0.0
2020-Mar-31 17:58N 28°21' W 080°32'0 0.0
2020-Mar-31 16:28N 28°21' W 080°32'0 0.1
2020-Mar-31 15:58N 28°21' W 080°32'0 0.0
2020-Mar-31 11:25N 28°21' W 080°32'0 0.0
2020-Mar-31 10:58N 28°21' W 080°32'0 0.0
2020-Mar-31 09:58N 28°21' W 080°32'0 0.0
2020-Mar-31 09:28N 28°21' W 080°32'0 0.0
2020-Mar-31 08:28N 28°21' W 080°32'0 0.0
2020-Mar-31 07:28N 28°21' W 080°32'0 0.0
2020-Mar-31 06:25N 28°21' W 080°32'0 0.0
2020-Mar-31 04:58N 28°21' W 080°32'0 0.1
2020-Mar-31 04:28N 28°21' W 080°32'0 0.1
2020-Mar-31 03:28N 28°21' W 080°32'0 0.0
2020-Mar-31 00:58N 28°21' W 080°32'0 0.0
2020-Mar-30 23:28N 28°21' W 080°32'0 0.0
2020-Mar-30 21:22N 28°21' W 080°32'0 0.0
2020-Mar-30 20:46N 28°21' W 080°32'0 0.0
2020-Mar-30 17:25N 28°21' W 080°32'0 0.0
2020-Mar-30 16:28N 28°21' W 080°32'0 0.0
2020-Mar-30 14:19N 28°21' W 080°32'0 0.0
2020-Mar-30 13:58N 28°21' W 080°32'0 0.0
2020-Mar-30 10:25N 28°21' W 080°32'0 0.0
2020-Mar-30 08:28N 28°21' W 080°32'0 0.0
2020-Mar-30 07:40N 28°21' W 080°32'0 0.0
2020-Mar-30 05:58N 28°21' W 080°32'0 0.0
2020-Mar-30 05:25N 28°21' W 080°32'0 0.0
2020-Mar-30 04:19N 28°21' W 080°32'0 0.0
2020-Mar-30 01:58N 28°21' W 080°32'0 0.0
2020-Mar-30 01:28N 28°21' W 080°32'0 0.0
2020-Mar-29 22:28N 28°21' W 080°32'6 6.0
2020-Mar-29 21:28N 28°20' W 080°25'23 4.3
2020-Mar-29 16:11N 27°59' W 080°13'22 8.3
2020-Mar-29 13:30N 28°19' W 080°25'611.8
2020-Mar-29 12:58N 28°21' W 080°32'0 0.1
2020-Mar-29 12:28N 28°21' W 080°32'0 0.0
2020-Mar-29 11:25N 28°21' W 080°32'0 0.0
2020-Mar-29 08:58N 28°21' W 080°32'0 0.0
2020-Mar-29 03:28N 28°21' W 080°32'0 0.0
2020-Mar-29 02:28N 28°21' W 080°32'0 0.0
2020-Mar-28 23:58N 28°21' W 080°32'0 0.0
2020-Mar-28 23:28N 28°21' W 080°32'0 0.0
2020-Mar-28 20:58N 28°21' W 080°32'0 0.0
2020-Mar-28 19:28N 28°21' W 080°32'0 0.0
2020-Mar-28 15:28N 28°21' W 080°32'0 0.0
2020-Mar-28 12:28N 28°21' W 080°32'0 0.0
2020-Mar-28 11:58N 28°21' W 080°32'0 0.0
2020-Mar-28 11:28N 28°21' W 080°32'0 0.0
2020-Mar-28 08:28N 28°21' W 080°32'0 0.0
2020-Mar-28 06:25N 28°21' W 080°32'0 0.0
2020-Mar-28 05:58N 28°21' W 080°32'0 0.0
2020-Mar-28 02:55N 28°21' W 080°32'0 0.1
2020-Mar-28 02:28N 28°21' W 080°32'0 0.0
2020-Mar-28 01:58N 28°21' W 080°32'0 0.1
2020-Mar-28 00:58N 28°21' W 080°32'0 0.0
2020-Mar-27 22:28N 28°21' W 080°32'0 0.0
2020-Mar-27 21:25N 28°21' W 080°32'6 1.3
2020-Mar-27 16:57N 28°25' W 080°38'0 0.0
2020-Mar-27 16:30N 28°25' W 080°38'0 0.0
2020-Mar-27 16:00N 28°25' W 080°38'0 0.0
2020-Mar-27 15:00N 28°25' W 080°38'0 0.0
2020-Mar-27 13:30N 28°25' W 080°38'0 0.0
2020-Mar-27 12:27N 28°25' W 080°38'0 0.0
2020-Mar-27 12:00N 28°25' W 080°38'0 0.0
2020-Mar-27 10:30N 28°25' W 080°38'0 0.0
2020-Mar-27 09:57N 28°25' W 080°38'0 0.0
2020-Mar-27 08:00N 28°25' W 080°38'0 0.0
2020-Mar-27 06:00N 28°25' W 080°38'0 0.0
2020-Mar-27 03:27N 28°25' W 080°38'0 0.0
2020-Mar-26 21:30N 28°25' W 080°38'0 0.0
2020-Mar-26 21:00N 28°25' W 080°38'0 0.0
2020-Mar-26 17:54N 28°25' W 080°38'0 0.0
2020-Mar-26 17:30N 28°25' W 080°38'0 0.0
2020-Mar-26 15:00N 28°25' W 080°38'0 0.0
2020-Mar-26 13:30N 28°25' W 080°38'7 2.9
2020-Mar-26 11:00N 28°22' W 080°30'  
Track history (hours):
 
Tides and Currents Weather Stations Pressure Air Temp Water Temp Dewpoint Dewpoint Depression Visibility Wind Speed Wind Dir Waves Ship Positions

Disney Dream

Last reported at 2020-Apr-05 06:59 UTC. Time now 2020-Apr-05 07:24 UTC.
Position N 28°20' W 080°31'.

Length 339 m; draft 8.6 m.

Type: Ship. MMSI: 311042900.

Date/timePositionNaut miles runAvg speedWind from/ knotsBaromVisibWave heightAir tempDewpointWater temp
2020-Apr-05 06:59N 28°20' W 080°31'0 0.0
2020-Apr-05 06:29N 28°20' W 080°31'3 5.7
2020-Apr-05 06:00N 28°18' W 080°30'3 0.6 150 / 101012.510.8 24.0 23.0
2020-Apr-05 01:26N 28°20' W 080°31'0 0.0
2020-Apr-04 23:29N 28°20' W 080°31'0 0.0
2020-Apr-04 21:59N 28°20' W 080°32'0 0.0
2020-Apr-04 21:26N 28°20' W 080°32'0 0.0
2020-Apr-04 19:59N 28°20' W 080°31'0 0.0
2020-Apr-04 19:29N 28°20' W 080°32'0 0.0
2020-Apr-04 16:59N 28°20' W 080°31'0 0.0
2020-Apr-04 15:50N 28°20' W 080°31'0 0.0
2020-Apr-04 14:50N 28°20' W 080°31'0 0.0
2020-Apr-04 14:29N 28°20' W 080°31'0 0.0
2020-Apr-04 13:59N 28°20' W 080°31'0 0.0
2020-Apr-04 13:29N 28°20' W 080°31'0 0.0
2020-Apr-04 07:29N 28°20' W 080°32'0 0.0
2020-Apr-04 03:59N 28°20' W 080°32'0 0.0
2020-Apr-04 02:59N 28°20' W 080°32'0 0.0
2020-Apr-04 02:20N 28°20' W 080°32'0 0.0
2020-Apr-04 00:56N 28°20' W 080°32'0 0.0
2020-Apr-03 21:29N 28°20' W 080°31'6 5.8
2020-Apr-03 20:30N 28°25' W 080°36'2 1.7
2020-Apr-03 19:28N 28°25' W 080°38'0 0.0
2020-Apr-03 16:28N 28°25' W 080°38'0 0.0
2020-Apr-03 15:58N 28°25' W 080°38'0 0.0
2020-Apr-03 15:28N 28°25' W 080°38'0 0.0
2020-Apr-03 12:58N 28°25' W 080°38'0 0.0
2020-Apr-03 10:58N 28°25' W 080°38'0 0.0
2020-Apr-03 09:58N 28°25' W 080°38'15 7.6
2020-Apr-03 07:57N 28°18' W 080°22'14 7.3
2020-Apr-03 06:00N 28°18' W 080°06'1212.2 050 / 61013.910.8 22.0 26.0
2020-Apr-03 05:00N 28°12' W 079°54'34 3.3 360 / 51013.710.8 22.0 26.0
2020-Apr-02 18:40N 28°21' W 080°32'0 0.0
2020-Apr-02 11:46N 28°21' W 080°32'0 0.0
2020-Apr-02 10:55N 28°21' W 080°32'0 0.1
2020-Apr-02 10:22N 28°21' W 080°32'0 0.0
2020-Apr-02 09:19N 28°21' W 080°32'0 0.0
2020-Apr-02 07:40N 28°21' W 080°32'0 0.1
2020-Apr-02 07:28N 28°21' W 080°32'0 0.0
2020-Apr-02 05:28N 28°21' W 080°32'0 0.0
2020-Apr-02 02:16N 28°21' W 080°32'0 0.0
2020-Apr-02 01:49N 28°21' W 080°32'0 0.0
2020-Apr-01 22:52N 28°21' W 080°32'0 0.0
2020-Apr-01 21:16N 28°21' W 080°32'0 0.0
2020-Apr-01 18:28N 28°21' W 080°32'0 0.0
2020-Apr-01 17:55N 28°21' W 080°32'0 0.0
2020-Apr-01 16:55N 28°21' W 080°32'0 0.0
2020-Apr-01 16:28N 28°21' W 080°32'0 0.0
2020-Apr-01 10:10N 28°21' W 080°32'0 0.0
2020-Apr-01 07:58N 28°21' W 080°32'0 0.0
2020-Apr-01 07:28N 28°21' W 080°32'0 0.0
2020-Mar-31 21:55N 28°21' W 080°32'0 0.0
2020-Mar-31 20:43N 28°21' W 080°32'0 0.0
2020-Mar-31 20:16N 28°21' W 080°32'0 0.0
2020-Mar-31 17:58N 28°21' W 080°32'0 0.0
2020-Mar-31 16:28N 28°21' W 080°32'0 0.1
2020-Mar-31 15:58N 28°21' W 080°32'0 0.0
2020-Mar-31 11:25N 28°21' W 080°32'0 0.0
2020-Mar-31 10:58N 28°21' W 080°32'0 0.0
2020-Mar-31 09:58N 28°21' W 080°32'0 0.0
2020-Mar-31 09:28N 28°21' W 080°32'0 0.0
2020-Mar-31 08:28N 28°21' W 080°32'0 0.0
2020-Mar-31 07:28N 28°21' W 080°32'0 0.0
2020-Mar-31 06:25N 28°21' W 080°32'0 0.0
2020-Mar-31 04:58N 28°21' W 080°32'0 0.1
2020-Mar-31 04:28N 28°21' W 080°32'0 0.1
2020-Mar-31 03:28N 28°21' W 080°32'0 0.0
2020-Mar-31 00:58N 28°21' W 080°32'0 0.0
2020-Mar-30 23:28N 28°21' W 080°32'0 0.0
2020-Mar-30 21:22N 28°21' W 080°32'0 0.0
2020-Mar-30 20:46N 28°21' W 080°32'0 0.0
2020-Mar-30 17:25N 28°21' W 080°32'0 0.0
2020-Mar-30 16:28N 28°21' W 080°32'0 0.0
2020-Mar-30 14:19N 28°21' W 080°32'0 0.0
2020-Mar-30 13:58N 28°21' W 080°32'0 0.0
2020-Mar-30 10:25N 28°21' W 080°32'0 0.0
2020-Mar-30 08:28N 28°21' W 080°32'0 0.0
2020-Mar-30 07:40N 28°21' W 080°32'0 0.0
2020-Mar-30 05:58N 28°21' W 080°32'0 0.0
2020-Mar-30 05:25N 28°21' W 080°32'0 0.0
2020-Mar-30 04:19N 28°21' W 080°32'0 0.0
2020-Mar-30 01:58N 28°21' W 080°32'0 0.0
2020-Mar-30 01:28N 28°21' W 080°32'0 0.0
2020-Mar-29 22:28N 28°21' W 080°32'6 6.0
2020-Mar-29 21:28N 28°20' W 080°25'23 4.3
2020-Mar-29 16:11N 27°59' W 080°13'22 8.3
2020-Mar-29 13:30N 28°19' W 080°25'611.8
2020-Mar-29 12:58N 28°21' W 080°32'0 0.1
2020-Mar-29 12:28N 28°21' W 080°32'0 0.0
2020-Mar-29 11:25N 28°21' W 080°32'0 0.0
2020-Mar-29 08:58N 28°21' W 080°32'0 0.0
2020-Mar-29 03:28N 28°21' W 080°32'0 0.0
2020-Mar-29 02:28N 28°21' W 080°32'0 0.0
2020-Mar-28 23:58N 28°21' W 080°32'0 0.0
2020-Mar-28 23:28N 28°21' W 080°32'0 0.0
2020-Mar-28 20:58N 28°21' W 080°32'0 0.0
2020-Mar-28 19:28N 28°21' W 080°32'0 0.0
2020-Mar-28 15:28N 28°21' W 080°32'0 0.0
2020-Mar-28 12:28N 28°21' W 080°32'0 0.0
2020-Mar-28 11:58N 28°21' W 080°32'0 0.0
2020-Mar-28 11:28N 28°21' W 080°32'0 0.0
2020-Mar-28 08:28N 28°21' W 080°32'0 0.0
2020-Mar-28 06:25N 28°21' W 080°32'0 0.0
2020-Mar-28 05:58N 28°21' W 080°32'0 0.0
2020-Mar-28 02:55N 28°21' W 080°32'0 0.1
2020-Mar-28 02:28N 28°21' W 080°32'0 0.0
2020-Mar-28 01:58N 28°21' W 080°32'0 0.1
2020-Mar-28 00:58N 28°21' W 080°32'0 0.0
2020-Mar-27 22:28N 28°21' W 080°32'0 0.0
2020-Mar-27 21:25N 28°21' W 080°32'6 1.3
2020-Mar-27 16:57N 28°25' W 080°38'0 0.0
2020-Mar-27 16:30N 28°25' W 080°38'0 0.0
2020-Mar-27 16:00N 28°25' W 080°38'0 0.0
2020-Mar-27 15:00N 28°25' W 080°38'0 0.0
2020-Mar-27 13:30N 28°25' W 080°38'0 0.0
2020-Mar-27 12:27N 28°25' W 080°38'0 0.0
2020-Mar-27 12:00N 28°25' W 080°38'0 0.0
2020-Mar-27 10:30N 28°25' W 080°38'0 0.0
2020-Mar-27 09:57N 28°25' W 080°38'0 0.0
2020-Mar-27 08:00N 28°25' W 080°38'0 0.0
2020-Mar-27 06:00N 28°25' W 080°38'0 0.0
2020-Mar-27 03:27N 28°25' W 080°38'0 0.0
2020-Mar-26 21:30N 28°25' W 080°38'0 0.0
2020-Mar-26 21:00N 28°25' W 080°38'0 0.0
2020-Mar-26 17:54N 28°25' W 080°38'0 0.0
2020-Mar-26 17:30N 28°25' W 080°38'0 0.0
2020-Mar-26 15:00N 28°25' W 080°38'0 0.0
2020-Mar-26 13:30N 28°25' W 080°38'7 2.9
2020-Mar-26 11:00N 28°22' W 080°30'  

Dump ship's entire track history